This is the latest recevied weather packets stored in our database for station/object KE8BSM. If no packets are shown the sender has not sent any weather packets the latest 10 day(s).
| Time | Temp. | Humidity | Pressure | Rain* | Wind** | Luminosity | Snow |
|---|---|---|---|---|---|---|---|
| 1778116696 | 10° C | 51% | 1013.1 hPa | 0 mm | - | 0 W/m² | - |
| 1778113697 | 10° C | 50% | 1013 hPa | 0 mm | - | 5 W/m² | - |
| 1778111897 | 10.56° C | 48% | 1012.6 hPa | 0 mm | - | 34 W/m² | - |
| 1778111297 | 10.56° C | 45% | 1012.7 hPa | 0 mm | - | 32 W/m² | - |
| 1778110697 | 10.56° C | 47% | 1012.7 hPa | 0 mm | - | 40 W/m² | - |
| 1778104716 | 12.78° C | 41% | 1012.4 hPa | 0 mm | - | 449 W/m² | - |
| 1778103497 | 12.22° C | 43% | 1012.5 hPa | 0 mm | - | 497 W/m² | - |
| 1778102317 | 12.22° C | 42% | 1012.5 hPa | 0 mm | - | 544 W/m² | - |
| 1778101697 | 12.22° C | 40% | 1012.5 hPa | 0 mm | - | 606 W/m² | - |
| 1778092097 | 11.67° C | 41% | 1012.8 hPa | 0 mm | - | 936 W/m² | - |
| 1778086118 | 11.11° C | 40% | 1013.2 hPa | 0 mm | - | 353 W/m² | - |
| 1778081916 | 9.44° C | 47% | 1013.1 hPa | 0 mm | - | 191 W/m² | - |
| 1778081296 | 9.44° C | 46% | 1013.3 hPa | 0 mm | - | 164 W/m² | - |
| 1778078297 | 8.89° C | 48% | 1013.1 hPa | 0 mm | - | 331 W/m² | - |
| 1778071107 | 5.56° C | 76% | 1012.7 hPa | 0 mm | - | 31 W/m² | - |
| 1778062110 | 3.89° C | 83% | 1011.2 hPa | 0 mm | - | 0 W/m² | - |
| 1778054296 | 4.44° C | 85% | 1010.3 hPa | 0 mm | - | 0 W/m² | - |
| 1778053696 | 4.44° C | 86% | 1010.3 hPa | 0 mm | - | 0 W/m² | - |
| 1778049496 | 5.56° C | 78% | 1010.3 hPa | 0 mm | - | 0 W/m² | - |
| 1778043497 | 6.67° C | 73% | 1010.4 hPa | 0 mm | - | 0 W/m² | - |
| 1778039898 | 6.67° C | 70% | 1009.9 hPa | 0 mm | - | 0 W/m² | - |
| 1778038698 | 6.67° C | 68% | 1009.8 hPa | 0 mm | - | 0 W/m² | - |
| 1778038116 | 6.67° C | 69% | 1009.5 hPa | 0 mm | - | 0 W/m² | - |
| 1778037495 | 7.22° C | 69% | 1009.8 hPa | 0 mm | - | 0 W/m² | - |
| 1778035696 | 7.22° C | 68% | 1009.7 hPa | 0 mm | - | 0 W/m² | - |
* Rain latest hour (hover to see other rain measurements)
** Current wind speed in m/s (hover to see current wind gust speed)